┬áRace 3 –┬áCombe I

Full, searchable results can be found online at Tempo Events. They are reproduced below.

Chip timing for these races is provided by Tempo Events, with a manual backup and video recording of the finish. The results buttons above will take you direct to the results on their website. Please address any queries about the results direct to Tempo Events (and preferably within 48 hours of the race) by contacting Sarah Bland at sarah@tempoevents.co.uk, but please also copy your e-mail to results@kidlingtonrunning.org.uk.

Results

Congratulations to Matthiew Marshall and Diane Moore the two winners of the third race in this season’s Mota-vation series!

The full, official results are as follows:

Pos Race No Fav Name Time Net Time Category Cat Pos Gender Gen Pos Club Team Pos TOD
1 207 Matthiew Marshall 00:20:09 00:20:09 SM 1 Male 1 Southampton Athletic Club 19:51:03
2 306 James BOLTON 00:20:20 00:20:20 VM40 1 Male 2 WOODSTOCK HARRIERS 8 19:51:14
3 205 Alec Vessey 00:20:31 00:20:31 SM 2 Male 3 Reading AC 19:51:25
4 148 Stephen KIMBER 00:20:52 00:20:52 SM 3 Male 4 WSEH 19:51:46
5 359 Les NEWELL 00:20:55 00:20:55 VM40 2 Male 5 Oxford City AC 2 19:51:49
6 489 Ben WEST 00:21:04 00:21:04 U19M 1 Male 6 Bicester AC 19:51:58
7 345 Tegs JONES 00:21:11 00:21:11 VM40 3 Male 7 Oxford City AC 2 19:52:05
8 390 Rob TAYLOR 00:21:22 00:21:20 VM40 4 Male 8 Vale of Aylesbury 4 19:52:16
9 198 Daniel WILSON 00:21:45 00:21:43 SM 4 Male 9 Abingdon AC 5 19:52:39
10 570 Julian RICHARDSON 00:21:50 00:21:50 VM50 1 Male 10 Oxford City AC 2 19:52:44
11 190 Samuel UPTON 00:21:52 00:21:50 SM 5 Male 11 Witney Roadrunners 9 19:52:46
12 100 Richard ASHBY 00:21:56 00:21:53 SM 6 Male 12 Headington Roadrunners 1 19:52:50
13 102 Mark BAKER 00:21:59 00:21:58 SM 7 Male 13 Eynsham Roadrunners 3 19:52:53
14 501 John AYTEO 00:22:04 00:22:04 VM50 2 Male 14 Oxford City AC 2 19:52:58
15 155 Paul LEVERTON 00:22:08 00:22:04 SM 8 Male 15 Bicester Tri 19:53:02
16 388 Martyn SUMMERFIELD 00:22:09 00:22:09 VM40 5 Male 16 Vale of Aylesbury 4 19:53:03
17 210 Edward Brooks 00:22:11 00:22:11 SM 9 Male 17 Oxford University AC 19:53:05
18 312 Jason COOKE 00:22:14 00:22:12 VM40 6 Male 18 White Horse Harriers 19:53:08
19 578 Robert STOREY 00:22:15 00:22:14 VM50 3 Male 19 Eynsham Roadrunners 3 19:53:09
20 485 Owen KNOX 00:22:22 00:22:22 U19M 2 Male 20 Banbury Harriers 8 19:53:16
21 369 Chris PRINCE 00:22:30 00:22:28 VM40 7 Male 21 Headington Roadrunners 1 19:53:24
22 154 Peter LEEK 00:22:32 00:22:30 SM 10 Male 22 Headington Roadrunners 1 19:53:26
23 510 David CANTWELL 00:22:39 00:22:37 VM50 4 Male 23 WOODSTOCK HARRIERS 8 19:53:33
24 623 Paul GREGORY 00:22:46 00:22:44 VM60 1 Male 24 Vale of Aylesbury 4 19:53:40
25 377 Steve ROUND 00:22:53 00:22:51 VM40 8 Male 25 Cherwell Runners & Joggers 7 19:53:47
26 208 Tristan Clarke 00:22:58 00:22:54 SM 11 Male 26 Headington Roadrunners 1 19:53:52
27 333 Anthony HANNER HOPWOOD 00:22:59 00:22:55 VM40 9 Male 27 Headington Roadrunners 1 19:53:53
28 300 Peter AKRILL 00:23:01 00:22:59 VM40 10 Male 28 Abingdon AC 5 19:53:55
29 141 Colin HORNBY 00:23:02 00:22:59 SM 12 Male 29 Alchester RC 6 19:53:56
30 136 Peter GREEN 00:23:03 00:23:01 SM 13 Male 30 Eynsham Roadrunners 3 19:53:57
31 325 Kevin FRENCH 00:23:04 00:23:00 VM40 11 Male 31 Alchester RC 6 19:53:58
32 315 Jon DARWENT 00:23:04 00:23:02 VM40 12 Male 32 Abingdon AC 5 19:53:58
33 398 Dafydd WARBURTON 00:23:08 00:23:06 VM40 13 Male 33 Eynsham Roadrunners 3 19:54:02
34 158 Chris MACKIE 00:23:09 00:23:06 SM 14 Male 34 Bicester Tri 19:54:03
35 382 Richard SKILBECK 00:23:10 00:23:09 VM40 14 Male 35 Headington Roadrunners 1 19:54:04
36 581 Ian THOMAS 00:23:10 00:23:07 VM50 5 Male 36 Cherwell Runners & Joggers 7 19:54:04
37 370 Simon PRITCHARD 00:23:12 00:23:09 VM40 15 Male 37 Banbury Harriers 8 19:54:06
38 327 Kevin GAME 00:23:12 00:23:09 VM40 16 Male 38 WOODSTOCK HARRIERS 8 19:54:06
39 851 Diane MOORE 00:23:13 00:23:10 VL35 1 Female 1 Headington Roadrunners 1 19:54:07
40 385 Andrew STICKLEY 00:23:15 00:23:12 VM40 17 Male 39 Alchester RC 6 19:54:09
41 118 James DAVIS 00:23:20 00:23:17 SM 15 Male 40 Vale of Aylesbury 4 19:54:14
42 138 Benedict HEANEY 00:23:26 00:23:22 SM 16 Male 41 Cherwell Runners & Joggers 7 19:54:20
43 486 Matthew LOCK 00:23:27 00:23:24 U19M 3 Male 42 Witney Roadrunners 9 19:54:21
44 157 Christopher LUMLEY 00:23:28 00:23:22 SM 17 Male 43 Alchester RC 6 19:54:22
45 302 David BANNISTER 00:23:30 00:23:23 VM40 18 Male 44 Hook Norton Harriers 14 19:54:24
46 366 Benedict POLLARD 00:23:35 00:23:30 VM40 19 Male 45 Eynsham Roadrunners 3 19:54:29
47 186 Jeffrey TRYBUS 00:23:38 00:23:35 SM 18 Male 46 Cherwell Runners & Joggers 7 19:54:32
48 308 Andy BYERLEY 00:23:41 00:23:38 VM40 20 Male 47 Vale of Aylesbury 4 19:54:35
49 199 James WRIGHT 00:23:41 00:23:36 SM 19 Male 48 Alchester RC 6 19:54:35
50 647 Bryan Green 00:23:43 00:23:39 VM60 2 Male 49 Oxford City AC 2 19:54:37
51 548 Anthony LOCK 00:23:48 00:23:45 VM50 6 Male 50 Witney Roadrunners 9 19:54:42
52 391 Dewi THOMAS 00:23:53 00:23:50 VM40 21 Male 51 Cherwell Runners & Joggers 7 19:54:47
53 362 Shaun O'GORMAN 00:23:53 00:23:51 VM40 22 Male 52 Alchester RC 6 19:54:47
54 716 Hannah HALE 00:23:55 00:23:50 SL 1 Female 2 Eynsham Roadrunners 2 19:54:49
55 156 Max LIVINGSTONE-LEARMONTH 00:24:01 00:23:57 SM 20 Male 53 Abingdon AC 5 19:54:55
56 206 Martin Walker 00:24:07 00:24:02 SM 21 Male 54 Abingdon AC 5 19:55:01
57 542 Ian LAMBOURN 00:24:11 00:24:07 VM50 7 Male 55 White Horse Harriers 19:55:05
58 482 Ed GRONBECH 00:24:13 00:24:12 U19M 4 Male 56 Radley AC 19:55:07
59 350 Robert LINNEL 00:24:15 00:24:11 VM40 23 Male 57 WOODSTOCK HARRIERS 8 19:55:09
60 644 Bryan Vaughan 00:24:18 00:24:14 VM60 3 Male 58 WOODSTOCK HARRIERS 8 19:55:12
61 504 Graham BRIDGES 00:24:21 00:24:17 VM50 8 Male 59 Eynsham Roadrunners 3 19:55:15
62 179 David SMYTH 00:24:21 00:24:17 SM 22 Male 60 Abingdon AC 5 19:55:15
63 565 Andy PHELPS 00:24:22 00:24:18 VM50 9 Male 61 Headington Roadrunners 11 19:55:16
64 171 Daniel RINGS 00:24:23 00:24:19 SM 23 Male 62 Headington Roadrunners 11 19:55:17
65 752 Frankie SNARE 00:24:27 00:24:22 SL 2 Female 3 Witney Roadrunners 4 19:55:21
66 340 Fraser HOWARD 00:24:29 00:24:25 VM40 24 Male 63 Witney Roadrunners 9 19:55:23
67 160 Arthur McEWAN-JAMES 00:24:29 00:24:22 SM 24 Male 64 Eynsham Roadrunners 10 19:55:23
68 583 Graham WALLACE 00:24:30 00:24:25 VM50 10 Male 65 Abingdon AC 12 19:55:24
69 126 Thomas FOOTTIT 00:24:33 00:24:25 SM 25 Male 66 Hook Norton Harriers 14 19:55:27
70 341 Richard HUME 00:24:35 00:24:29 VM40 25 Male 67 Eynsham Roadrunners 10 19:55:29
71 108 Ben BREAKER 00:24:37 00:24:29 SM 26 Male 68 Eynsham Roadrunners 10 19:55:31
72 361 Darren NICHOL 00:24:38 00:24:31 VM40 26 Male 69 Cherwell Runners & Joggers 7 19:55:32
73 701 Donna ALLEN 00:24:42 00:24:34 SL 3 Female 4 Hook Norton Harriers 7 19:55:36
74 166 Kerry PAPPS 00:24:44 00:24:39 SM 27 Male 70 Eynsham Roadrunners 10 19:55:38
75 621 Richard GRANT 00:24:47 00:24:42 VM60 4 Male 71 Oxford City AC 2 19:55:41
76 105 Vincente BAYLISS 00:24:48 00:24:43 SM 28 Male 72 Alchester RC 13 19:55:42
77 5 Chloe Ridewood 00:24:48 00:24:42 U19L 1 Female 5 Abingdon AC 3 19:55:42
78 109 Daniel BREMNER 00:24:49 00:24:46 SM 29 Male 73 Headington Roadrunners 11 19:55:43
79 535 Steve HOLDER 00:24:56 00:24:50 VM50 11 Male 74 Abingdon AC 12 19:55:50
80 211 Ben George 00:24:58 00:24:46 SM 30 Male 75 19:55:52
81 411 Keith Read 00:24:59 00:24:53 VM40 27 Male 76 Witney Road Runners 19:55:53
82 820 Sarah DAVIES 00:25:03 00:24:57 VL35 2 Female 6 Oxford City AC 19:55:57
83 115 James CLARK 00:25:04 00:24:57 SM 31 Male 77 Witney Roadrunners 9 19:55:58
84 549 Kenny LOWIES 00:25:05 00:25:00 VM50 12 Male 78 Headington Roadrunners 11 19:55:59
85 525 Phil GRAY 00:25:08 00:25:03 VM50 13 Male 79 Oxford City AC 18 19:56:02
86 978 Samantha USHER 00:25:09 00:25:03 VL45 1 Female 7 Alchester RC 5 19:56:03
87 123 James FERGUSON 00:25:10 00:24:59 SM 32 Male 80 Bicester Tri 19:56:04
88 378 Mark SCHOFIELD 00:25:15 00:25:09 VM40 28 Male 81 Eynsham Roadrunners 10 19:56:09
89 546 Mark LEWY 00:25:18 00:25:12 VM50 14 Male 82 Abingdon AC 12 19:56:12
90 334 Nick HARDWICK 00:25:21 00:25:13 VM40 29 Male 83 Eynsham Roadrunners 10 19:56:15
91 409 Nick Shea 00:25:31 00:25:22 VM40 30 Male 84 19:56:25
92 865 Rachel SHAW 00:25:35 00:25:29 VL35 3 Female 8 Headington Roadrunners 1 19:56:29
93 596 Carl Gaden 00:25:36 00:25:15 VM50 15 Male 85 Headington Roadrunners 11 19:56:30
94 103 Tom BAKER 00:25:37 00:25:31 SM 33 Male 86 Eynsham Roadrunners 19 19:56:31
95 556 Julian MOORE 00:25:38 00:25:32 VM50 16 Male 87 Abingdon AC 12 19:56:32
96 399 Gary WARLAND 00:25:44 00:25:38 VM40 31 Male 88 Alchester RC 13 19:56:38
97 822 Sarah DUDGEON 00:25:48 00:25:42 VL35 4 Female 9 Abingdon AC 3 19:56:42
98 142 Liam HOSIER 00:25:52 00:25:43 SM 34 Male 89 Kidlington Running Club 19:56:46
99 607 Jon BURGESS 00:25:54 00:25:47 VM60 5 Male 90 Alchester RC 13 19:56:48
100 527 Robert GREEN 00:25:54 00:25:47 VM50 17 Male 91 Witney Roadrunners 9 19:56:48
101 517 Henry EDWARDES-EVANS 00:25:56 00:25:51 VM50 18 Male 92 Vale of Aylesbury 4 19:56:50
102 301 Ralf ARNEIL 00:25:59 00:25:52 VM40 32 Male 93 WOODSTOCK HARRIERS 8 19:56:53
103 554 Brian MOORE 00:25:59 00:25:51 VM50 19 Male 94 Witney Roadrunners 15 19:56:53
104 352 Dave MAY 00:26:00 00:25:50 VM40 33 Male 95 Witney Roadrunners 15 19:56:54
105 723 Amy JOHNSON 00:26:03 00:25:56 SL 4 Female 10 Headington Roadrunners 1 19:56:57
106 128 Tom FREEMAN 00:26:05 00:25:58 SM 35 Male 96 Kidlington Running Club 19:56:59
107 127 Oliver FOSTER 00:26:06 00:25:57 SM 36 Male 97 Alchester RC 13 19:57:00
108 593 Simon Best 00:26:08 00:26:01 VM50 20 Male 98 Alchester RC 13 19:57:02
109 394 Kurt TRINDER 00:26:09 00:26:03 VM40 34 Male 99 Cherwell Runners & Joggers 16 19:57:03
110 642 Stewart THORP 00:26:11 00:26:06 VM60 6 Male 100 Oxford City AC 18 19:57:05
111 404 Royston WILLIAMS 00:26:12 00:26:05 VM40 35 Male 101 Hook Norton Harriers 14 19:57:06
112 209 Billy Rendell 00:26:15 00:26:07 SM 37 Male 102 Witney Roadrunners 15 19:57:09
113 346 Alasdair KERR 00:26:15 00:26:07 VM40 36 Male 103 Alchester RC 13 19:57:09
114 739 Carly PETTETT 00:26:18 00:26:06 SL 5 Female 11 Eynsham Roadrunners 2 19:57:12
115 153 Lennard LEE 00:26:22 00:26:14 SM 38 Male 104 Headington Roadrunners 11 19:57:16
116 763 Katy Young 00:26:25 00:26:23 SL 6 Female 12 19:57:19
117 402 Garry WILLIAMS 00:26:29 00:26:21 VM40 37 Male 105 19:57:23
118 324 Adrian FRANCIS 00:26:29 00:26:22 VM40 38 Male 106 Abingdon AC 12 19:57:23
119 146 Sonnie JANE 00:26:30 00:26:21 SM 39 Male 107 WOODSTOCK HARRIERS 19:57:24
120 512 John CLARGO 00:26:33 00:26:26 VM50 21 Male 108 Headington Roadrunners 17 19:57:27
121 347 Will KNOX 00:26:37 00:26:30 VM40 39 Male 109 Banbury Harriers 38 19:57:31
122 310 Tom CLARKE 00:26:39 00:26:28 VM40 40 Male 110 Abingdon AC 12 19:57:33
123 551 Peter MARSHALL 00:26:44 00:26:39 VM50 22 Male 111 Oxford City AC 18 19:57:38
124 200 Dan WYMER 00:26:46 00:26:35 SM 40 Male 112 Witney Roadrunners 15 19:57:40
125 547 Andrew LISTER 00:26:46 00:26:36 VM50 23 Male 113 19:57:40
126 582 Guy TUCKER 00:26:47 00:26:42 VM50 24 Male 114 Cherwell Runners & Joggers 16 19:57:41
127 518 Graham FERRIS 00:26:48 00:26:37 VM50 25 Male 115 Witney Roadrunners 15 19:57:42
128 203 Ben Laing 00:26:48 00:26:39 SM 41 Male 116 Alchester RC 21 19:57:42
129 337 Warren HARRISON 00:26:49 00:26:37 VM40 41 Male 117 Cherwell Runners & Joggers 16 19:57:43
130 113 Darren CASSIDY 00:26:54 00:26:41 SM 42 Male 118 Cherwell Runners & Joggers 16 19:57:48
131 900 Kate ALLRED 00:26:54 00:26:44 VL45 2 Female 13 Headington Roadrunners 6 19:57:48
132 413 Toby Clarke 00:26:56 00:26:47 VM40 42 Male 119 Witney Roadrunners 15 19:57:50
133 135 Angus GRANT 00:26:56 00:26:35 SM 43 Male 120 Headington Roadrunners 17 19:57:50
134 629 Graham LE GOOD 00:26:57 00:26:45 VM60 7 Male 121 Witney Roadrunners 20 19:57:51
135 529 Nicholas HAMILTON 00:26:57 00:26:48 VM50 26 Male 122 Abingdon AC 22 19:57:51
136 766 Bridget Gould 00:26:59 00:26:50 SL 7 Female 14 WOODSTOCK HARRIERS 11 19:57:53
137 867 Lindsey SMITH 00:27:00 00:26:52 VL35 5 Female 15 Witney Roadrunners 4 19:57:54
138 328 Craig GIBBIN 00:27:01 00:26:53 VM40 43 Male 123 Witney Roadrunners 20 19:57:55
139 104 Martyn BANHAM 00:27:03 00:26:53 SM 44 Male 124 Hook Norton Harriers 14 19:57:57
140 319 Dan EISENHANDLER 00:27:08 00:27:01 VM40 44 Male 125 WOODSTOCK HARRIERS 19:58:02
141 762 Lizzie Bateman 00:27:13 00:27:03 SL 8 Female 16 Alchester RC 5 19:58:07
142 613 Mark CREASEY 00:27:13 00:27:04 VM60 8 Male 126 Eynsham Roadrunners 19 19:58:07
143 21 Katherine BATES 00:27:15 00:27:03 VL55 1 Female 17 Eynsham Roadrunners 2 19:58:09
144 144 Andrew HURST 00:27:16 00:27:06 SM 45 Male 127 Alchester RC 21 19:58:10
145 188 Chris TURNBULL 00:27:17 00:27:09 SM 46 Male 128 Headington Roadrunners 17 19:58:11
146 571 Alan ROBERTS 00:27:18 00:27:14 VM50 27 Male 129 Vale of Aylesbury 19:58:12
147 502 Martin BATE 00:27:19 00:27:10 VM50 28 Male 130 19:58:13
148 574 Stephen SMITH 00:27:24 00:27:16 VM50 29 Male 131 Abingdon AC 22 19:58:18
149 514 Steve COWLS 00:27:26 00:27:20 VM50 30 Male 132 Headington Roadrunners 17 19:58:20
150 4 Tia Williams 00:27:28 00:27:21 U19L 2 Female 18 Banbury Harriers 8 19:58:22
151 749 Lucy SHELTON 00:27:29 00:27:20 SL 9 Female 19 Abingdon AC 3 19:58:23
152 137 Tristan HALE 00:27:29 00:27:20 SM 47 Male 133 Eynsham Roadrunners 19 19:58:23
153 589 Ian WHITEHEAD 00:27:31 00:27:19 VM50 31 Male 134 Cherwell Runners & Joggers 16 19:58:25
154 595 Steve Howell 00:27:32 00:27:23 VM50 32 Male 135 WOODSTOCK HARRIERS 19:58:26
155 532 Matt HEYDON 00:27:33 00:27:23 VM50 33 Male 136 Kidlington Running Club 19:58:27
156 814 Claire COURT 00:27:36 00:27:26 VL35 6 Female 20 Alchester RC 5 19:58:30
157 742 Susie POWER 00:27:40 00:27:30 SL 10 Female 21 Headington Roadrunners 6 19:58:34
158 707 Madeleine DING 00:27:40 00:27:30 SL 11 Female 22 Headington Roadrunners 6 19:58:34
159 732 Victoria MUNDAY 00:27:41 00:27:23 SL 12 Female 23 Witney Roadrunners 4 19:58:35
160 611 Philip COY 00:27:44 00:27:34 VM60 9 Male 137 Banbury Harriers 38 19:58:38
161 864 Catriona SCOTT 00:27:44 00:27:35 VL35 7 Female 24 Headington Roadrunners 9 19:58:38
162 176 Andrew SMITH 00:27:48 00:27:38 SM 48 Male 138 Headington Roadrunners 17 19:58:42
163 853 Yvonne MORRIS 00:27:51 00:27:42 VL35 8 Female 25 Headington Roadrunners 9 19:58:45
164 174 Ian SELBY 00:27:55 00:27:41 SM 49 Male 139 Cherwell Runners & Joggers 16 19:58:49
165 320 Rob EVANS 00:27:56 00:27:43 VM40 45 Male 140 Alchester RC 21 19:58:50
166 507 Tony BURKETT 00:28:00 00:27:49 VM50 34 Male 141 Witney Roadrunners 20 19:58:54
167 725 Anna MACKIN 00:28:02 00:27:50 SL 13 Female 26 Eynsham Roadrunners 12 19:58:56
168 869 Rachel STANLEY-EVANS 00:28:04 00:27:51 VL35 9 Female 27 Witney Roadrunners 10 19:58:58
169 580 Paul TAYLOR 00:28:07 00:27:57 VM50 35 Male 142 Hook Norton Harriers 14 19:59:01
170 963 Samantha REES 00:28:07 00:27:58 VL45 3 Female 28 Hook Norton Harriers 7 19:59:01
171 600 Neville BAKER 00:28:08 00:27:55 VM60 10 Male 143 Headington Roadrunners 17 19:59:02
172 857 Ana RAMOS-VILLAVERDE 00:28:10 00:28:05 VL35 10 Female 29 Radley AC 19:59:04
173 905 Rachel BENNETT 00:28:17 00:28:08 VL45 4 Female 30 White Horse Harriers 19:59:11
174 597 Carl Tompson 00:28:20 00:28:05 VM40 46 Male 144 Oxford City AC 18 19:59:14
175 833 Sally HOWARD 00:28:21 00:28:05 VL35 11 Female 31 Witney Roadrunners 10 19:59:15
176 353 Nick MORLEY 00:28:22 00:28:14 VM40 47 Male 145 Witney Roadrunners 20 19:59:16
177 383 Adrian SMITH 00:28:23 00:28:15 VM40 48 Male 146 WOODSTOCK HARRIERS 19:59:17
178 528 Pete GRONBECH 00:28:24 00:28:19 VM50 36 Male 147 Radley AC 19:59:18
179 598 Stewart Griffiths 00:28:27 00:28:16 VM50 37 Male 148 19:59:21
180 169 Simon PRESTON 00:28:28 00:28:17 SM 50 Male 149 Hook Norton Harriers 14 19:59:22
181 944 Esther JOHNSON 00:28:29 00:28:17 VL45 5 Female 32 Headington Roadrunners 9 19:59:23
182 371 Richard REDFORD 00:28:35 00:28:14 VM40 49 Male 150 Witney Roadrunners 20 19:59:29
183 754 Samantha SUTER 00:28:38 00:28:29 SL 14 Female 33 Alchester RC 13 19:59:32
184 381 Christopher SHARPE 00:28:43 00:28:29 VM40 50 Male 151 Abingdon AC 22 19:59:37
185 985 Lucy Harris 00:28:51 00:28:40 VL45 6 Female 34 Witney Roadrunners 10 19:59:45
186 609 Kevin BYRNE 00:28:52 00:28:40 VM60 11 Male 152 Headington Roadrunners 23 19:59:46
187 338 Adrian HIGGINS 00:28:57 00:28:38 VM40 51 Male 153 Headington Roadrunners 23 19:59:51
188 410 Brad Hook 00:29:00 00:28:47 VM40 52 Male 154 Brackley & District Running Club 19:59:54
189 718 Jade HEWLETT 00:29:03 00:28:50 SL 15 Female 35 Witney Roadrunners 14 19:59:57
190 75 Phil KIMBER 00:29:06 00:28:55 VM70 1 Male 155 Oxford City AC 18 20:00:00
191 372 Simon RHODES 00:29:08 00:28:50 VM40 53 Male 156 Witney Roadrunners 20 20:00:02
192 828 Anwen Greenaway 00:29:14 00:28:56 VL35 12 Female 36 Hook Norton Harriers 7 20:00:08
193 959 Dawn OSBORNE 00:29:15 00:28:59 VL45 7 Female 37 Cherwell Runners & Joggers 17 20:00:09
194 645 Tony WHITLOCK 00:29:16 00:29:02 VM60 12 Male 157 Eynsham Roadrunners 19 20:00:10
195 46 Jacqueline PINNOCK 00:29:18 00:29:04 VL55 2 Female 38 Eynsham Roadrunners 12 20:00:12
196 756 Olivia UNDERHILL 00:29:22 00:29:14 SL 16 Female 39 Alchester RC 13 20:00:16
197 562 David OSBORNE 00:29:23 00:29:10 VM50 38 Male 158 Cherwell Runners & Joggers 25 20:00:17
198 407 Lu Rahman 00:29:26 00:29:13 VM40 54 Male 159 Kidlington Running Club 20:00:20
199 585 Neil WALLIS 00:29:28 00:29:13 VM50 39 Male 160 Banbury Harriers 39 20:00:22
200 536 Howard HUMPHRIS 00:29:29 00:29:16 VM50 40 Male 161 Eynsham Roadrunners 19 20:00:23
201 526 Darren GRAYSON 00:29:29 00:29:06 VM50 41 Male 162 Witney Roadrunners 20:00:23
202 550 Jonathan MARKS 00:29:32 00:29:11 VM50 42 Male 163 Eynsham Roadrunners 19 20:00:26
203 638 David SAWYER 00:29:33 00:29:21 VM60 13 Male 164 Headington Roadrunners 23 20:00:27
204 177 Ashley SMITH 00:29:33 00:29:21 SM 51 Male 165 Headington Roadrunners 23 20:00:27
205 728 Susie MORGAN 00:29:34 00:29:14 SL 17 Female 40 Hook Norton Harriers 22 20:00:28
206 380 Mark SCRIVENER 00:29:37 00:29:21 VM40 55 Male 166 Banbury Harriers 39 20:00:31
207 508 Steve BUTLER 00:29:44 00:29:22 VM50 43 Male 167 Eynsham Roadrunners 24 20:00:38
208 764 Hannah Grayson 00:29:48 00:29:33 SL 18 Female 41 WOODSTOCK HARRIERS 11 20:00:42
209 973 Philippa TERRY 00:29:50 00:29:34 VL45 8 Female 42 Abingdon AC 15 20:00:44
210 949 Caroline KERR 00:29:54 00:29:42 VL45 9 Female 43 Alchester RC 13 20:00:48
211 53 Gwyneth Hueter 00:29:58 00:29:44 VL55 3 Female 44 Oxford City AC 20:00:52
212 590 Huw WILLIAMS 00:29:59 00:29:43 VM50 44 Male 168 Hook Norton Harriers 20:00:53
213 534 Simon HODKIN 00:30:00 00:29:48 VM50 45 Male 169 Headington Roadrunners 23 20:00:54
214 412 Martin Leach 00:30:02 00:29:42 VM40 56 Male 170 Headington Road Runners 20:00:56
215 942 Anita JAMES 00:30:09 00:29:56 VL45 10 Female 45 Headington Roadrunners 16 20:01:03
216 487 Jacob SHEEL 00:30:10 00:29:58 U19M 5 Male 171 Marlborough School 20:01:04
217 876 Jessica WRIGHT 00:30:15 00:30:03 VL35 13 Female 46 Witney Roadrunners 14 20:01:09
218 305 John BISHOP 00:30:28 00:30:06 VM40 57 Male 172 Eynsham Roadrunners 24 20:01:22
219 710 Rebecca EVINS 00:30:29 00:30:16 SL 19 Female 47 Eynsham Roadrunners 12 20:01:23
220 747 Suzy ROBERTSON 00:30:29 00:30:19 SL 20 Female 48 Headington Roadrunners 16 20:01:23
221 606 David BUNNEY 00:30:30 00:30:10 VM60 14 Male 173 Hook Norton Harriers 20:01:24
222 64 Kate WILLIAMSON 00:30:30 00:30:18 VL65 1 Female 49 Eynsham Roadrunners 19 20:01:24
223 360 John NEWTON 00:30:32 00:30:11 VM40 58 Male 174 Abingdon AC 22 20:01:26
224 981 Zoe WHITE 00:30:38 00:30:22 VL45 11 Female 50 WOODSTOCK HARRIERS 11 20:01:32
225 800 Fiona ABLESON 00:30:39 00:30:24 VL35 14 Female 51 20:01:33
226 976 Sophie TUMELAIRE 00:30:41 00:30:22 VL45 12 Female 52 Abingdon AC 15 20:01:35
227 170 Jason RELTON 00:30:42 00:30:24 SM 52 Male 175 Hook Norton Harriers 20:01:36
228 55 Gillian Howell 00:30:48 00:30:32 VL55 4 Female 53 WOODSTOCK HARRIERS 18 20:01:42
229 914 Sue CANTWELL 00:30:48 00:30:33 VL45 13 Female 54 WOODSTOCK HARRIERS 18 20:01:42
230 594 Nick Cherry 00:30:48 00:30:26 VM50 46 Male 176 Alchester RC 21 20:01:42
231 40 Wendy MILLATT 00:30:49 00:30:32 VL55 5 Female 55 Abingdon AC 15 20:01:43
232 618 Neil FORBES 00:30:50 00:30:36 VM60 15 Male 177 Banbury Harriers 39 20:01:44
233 627 Martin JOHNSON 00:30:59 00:30:45 VM60 16 Male 178 Eynsham Roadrunners 24 20:01:53
234 938 Lisa HOLLAND 00:31:00 00:30:42 VL45 14 Female 56 Witney Roadrunners 14 20:01:54
235 522 Neil FRAPE 00:31:01 00:30:45 VM50 47 Male 179 Banbury Harriers 20:01:55
236 902 Alison BARRY 00:31:08 00:31:00 VL45 15 Female 57 Headington Roadrunners 16 20:02:02
237 951 Tara LAWFULL 00:31:12 00:30:49 VL45 16 Female 58 Eynsham Roadrunners 19 20:02:06
238 524 Clyde GOODWIN 00:31:15 00:31:06 VM50 48 Male 180 Bicester AC 20:02:09
239 922 Eileen DOHERTY 00:31:18 00:31:03 VL45 17 Female 59 WOODSTOCK HARRIERS 18 20:02:12
240 47 Kim SHAW 00:31:37 00:31:29 VL55 6 Female 60 Cherwell Runners & Joggers 17 20:02:31
241 870 Nina-Juliane STEINKE 00:31:38 00:31:20 VL35 15 Female 61 Abingdon AC 21 20:02:32
242 720 Kim HOPKINSON 00:31:41 00:31:30 SL 21 Female 62 Cherwell Runners & Joggers 17 20:02:35
243 816 Alison CRAGGS 00:31:42 00:31:20 VL35 16 Female 63 Eynsham Roadrunners 19 20:02:36
244 738 Lee-ann PENALUNA 00:31:44 00:31:29 SL 22 Female 64 Witney Roadrunners 20 20:02:38
245 2 Tara HUMPHRIS 00:31:50 00:31:32 U19L 3 Female 65 Eynsham Roadrunners 25 20:02:44
246 765 Abi Adams 00:31:50 00:31:32 SL 23 Female 66 Witney Roadrunners 20 20:02:44
247 617 Steve FABES 00:31:51 00:31:36 VM60 17 Male 181 Abingdon AC 22 20:02:45
248 639 John SHAW 00:31:53 00:31:44 VM60 18 Male 182 Cherwell Runners & Joggers 25 20:02:47
249 3 Jessica Penton 00:31:58 00:31:42 U19L 4 Female 67 WOODSTOCK HARRIERS 20:02:52
250 640 Andrew SLEIGHT 00:31:59 00:31:48 VM60 19 Male 183 Cherwell Runners & Joggers 25 20:02:53
251 808 Melanie CASSIDY 00:31:59 00:31:40 VL35 17 Female 68 Witney Roadrunners 20 20:02:53
252 533 Alan HINE 00:32:09 00:31:54 VM50 49 Male 184 Alchester RC 21 20:03:03
253 877 Nicola Fullerton 00:32:10 00:31:53 VL35 18 Female 69 Witney Roadrunners 23 20:03:04
254 709 Rhiannon EVANS 00:32:11 00:31:50 SL 24 Female 70 Headington Roadrunners 24 20:03:05
255 757 Abigail WALDOCK 00:32:11 00:31:43 SL 25 Female 71 Abingdon AC 21 20:03:05
256 964 Louise RHODES 00:32:12 00:31:53 VL45 18 Female 72 Witney Roadrunners 23 20:03:06
257 830 Annelies HENSHALL 00:32:13 00:32:01 VL35 19 Female 73 Alchester RC 26 20:03:07
258 569 Julian RELTON 00:32:16 00:32:04 VM50 50 Male 185 Hook Norton Harriers 20:03:10
259 634 Hugh MORRIS 00:32:33 00:32:25 VM60 20 Male 186 Eynsham Roadrunners 24 20:03:27
260 960 Julia PENNINGTON 00:32:37 00:32:16 VL45 19 Female 74 Abingdon AC 21 20:03:31
261 926 Elizabeth FRENCH 00:32:46 00:32:37 VL45 20 Female 75 Alchester RC 26 20:03:40
262 567 Neil PREDDY 00:33:05 00:32:53 VM50 51 Male 187 WOODSTOCK HARRIERS 20:03:59
263 872 Jill THOMAS 00:33:07 00:32:53 VL35 20 Female 76 Headington Roadrunners 24 20:04:01
264 849 Sharon MERRILL 00:33:07 00:32:54 VL35 21 Female 77 Headington Roadrunners 24 20:04:01
265 329 Rich GIBBS 00:33:10 00:33:03 VM40 59 Male 188 Headington Roadrunners 23 20:04:04
266 357 Ulen NEALE 00:33:12 00:32:57 VM40 60 Male 189 Headington Roadrunners 26 20:04:06
267 36 Glenys LOGAN 00:33:15 00:33:06 VL55 7 Female 78 Cherwell Runners & Joggers 27 20:04:09
268 49 Helen WALKER 00:33:21 00:33:11 VL55 8 Female 79 Cherwell Runners & Joggers 27 20:04:15
269 35 Judith LE GOOD 00:33:26 00:33:08 VL55 9 Female 80 Witney Roadrunners 23 20:04:20
270 626 Trevor JENNINGS 00:33:31 00:33:11 VM60 21 Male 190 Witney Roadrunners 20:04:25
271 636 Lawrence PARKES 00:33:35 00:33:19 VM60 22 Male 191 Cherwell Runners & Joggers 25 20:04:29
272 646 John WILCOX 00:33:37 00:33:16 VM60 23 Male 192 Eynsham Roadrunners 24 20:04:31
273 812 Nicola COPPUCK 00:33:37 00:33:07 VL35 22 Female 81 Eynsham Roadrunners 25 20:04:31
274 965 Kate ROSEBLADE 00:33:38 00:33:15 VL45 21 Female 82 Hook Norton Harriers 22 20:04:32
275 931 Sandra HARDING-BROWN 00:33:40 00:33:27 VL45 22 Female 83 Headington Roadrunners 29 20:04:34
276 519 Jonathan FORD 00:33:41 00:33:15 VM50 52 Male 193 20:04:35
277 601 Keith BAKER 00:33:43 00:33:19 VM60 24 Male 194 Eynsham Roadrunners 24 20:04:37
278 376 Bryan RODEN 00:33:44 00:33:18 VM40 61 Male 195 20:04:38
279 969 Linda SLAY 00:33:48 00:33:32 VL45 23 Female 84 Headington Roadrunners 29 20:04:42
280 615 David EARLY 00:33:54 00:33:29 VM60 25 Male 196 Eynsham Roadrunners 20:04:48
281 917 Sharon CHRISTIE 00:33:58 00:33:38 VL45 24 Female 85 Witney Roadrunners 28 20:04:52
282 840 Regina LALLY 00:33:59 00:33:42 VL35 23 Female 86 Witney Roadrunners 28 20:04:53
283 743 Lisa PRESTON 00:34:03 00:33:48 SL 26 Female 87 Hook Norton Harriers 22 20:04:57
284 831 Natalie HERBERT 00:34:06 00:33:42 VL35 24 Female 88 Cherwell Runners & Joggers 27 20:05:00
285 332 Graeme HACKLAND 00:34:08 00:33:48 VM40 62 Male 197 Hook Norton Harriers 20:05:02
286 827 Bethan Greenaway 00:34:08 00:33:50 VL35 25 Female 89 Hook Norton Harriers 31 20:05:02
287 387 Andrew SULLEY 00:34:10 00:33:52 VM40 63 Male 198 Headington Roadrunners 26 20:05:04
288 977 Lisa TYLER 00:34:13 00:33:55 VL45 25 Female 90 Eynsham Roadrunners 25 20:05:07
289 557 Colin MORRIS 00:34:14 00:33:56 VM50 53 Male 199 Witney Roadrunners 20:05:08
290 767 Vicki Hopkins 00:34:17 00:33:58 SL 27 Female 91 Witney Roadrunners 28 20:05:11
291 908 Paula BOOTH 00:34:18 00:34:00 VL45 26 Female 92 WOODSTOCK HARRIERS 20:05:12
292 52 Patricia WILSON 00:34:20 00:33:57 VL55 10 Female 93 Abingdon AC 30 20:05:14
293 323 Mike FISHER 00:34:34 00:34:11 VM40 64 Male 200 Alchester RC 21 20:05:28
294 924 Stephanie FISHER 00:34:35 00:34:13 VL45 27 Female 94 Alchester RC 26 20:05:29
295 51 Jane WHITLOCK 00:34:42 00:34:24 VL55 11 Female 95 Eynsham Roadrunners 33 20:05:36
296 564 Clifford PENTON 00:34:45 00:34:22 VM50 54 Male 201 Abingdon AC 22 20:05:39
297 733 Jacqueline MURPHY 00:34:45 00:34:19 SL 28 Female 96 Headington Roadrunners 29 20:05:39
298 614 Mike DAVIES 00:34:46 00:34:21 VM60 26 Male 202 Headington Roadrunners 26 20:05:40
299 945 Gail JONES 00:34:48 00:34:23 VL45 28 Female 97 Headington Roadrunners 32 20:05:42
300 54 Jackie Duvall 00:34:53 00:34:33 VL55 12 Female 98 Headington Roadrunners 32 20:05:47
301 23 Darlene BURKETT 00:34:57 00:34:36 VL55 13 Female 99 Witney Roadrunners 20:05:51
302 984 Ellie Barnes 00:35:07 00:34:52 VL45 29 Female 100 20:06:01
303 708 Melissa DOWNING 00:35:08 00:34:41 SL 29 Female 101 20:06:02
304 717 Annabel HEANEY 00:35:15 00:34:51 SL 30 Female 102 Cherwell Runners & Joggers 20:06:09
305 804 Helen BOWER 00:35:20 00:34:53 VL35 26 Female 103 Abingdon AC 30 20:06:14
306 845 Rebecca MAHER 00:35:25 00:35:09 VL35 27 Female 104 Abingdon AC 30 20:06:19
307 619 Andrew GARNER 00:35:25 00:34:59 VM60 27 Male 203 Abingdon AC 20:06:19
308 579 John STYLES 00:35:25 00:35:04 VM50 55 Male 204 Abingdon AC 20:06:19
309 802 Rachel BANNISTER 00:35:32 00:35:17 VL35 28 Female 105 Hook Norton Harriers 31 20:06:26
310 541 Ian KIRTON 00:35:44 00:35:20 VM50 56 Male 205 Cherwell Runners & Joggers 25 20:06:38
311 76 Nigel LAMBERT 00:35:49 00:35:40 VM70 2 Male 206 Alchester RC 20:06:43
312 39 Carol MEREDITH 00:35:52 00:35:37 VL55 14 Female 106 Hook Norton Harriers 31 20:06:46
313 500 Anton ANDERSEN 00:35:52 00:35:37 VM50 57 Male 207 20:06:46
314 401 Clive WILLCOCK 00:36:16 00:35:49 VM40 65 Male 208 Abingdon AC 20:07:10
315 936 Sandra HERYET 00:36:29 00:36:12 VL45 30 Female 107 Hook Norton Harriers 36 20:07:23
316 913 Elaine BUTLER 00:36:36 00:36:19 VL45 31 Female 108 Eynsham Roadrunners 33 20:07:30
317 612 Ken CRAIGIE 00:36:38 00:36:27 VM60 28 Male 209 Cherwell Runners & Joggers 25 20:07:32
318 515 Graham DAY 00:36:39 00:36:13 VM50 58 Male 210 Headington Roadrunners 26 20:07:33
319 32 Marisa KEELEY 00:36:40 00:36:18 VL55 15 Female 109 Eynsham Roadrunners 33 20:07:34
320 941 Helen HUGGINS 00:36:41 00:36:22 VL45 32 Female 110 Headington Roadrunners 32 20:07:35
321 628 Ian KEELEY 00:36:51 00:36:28 VM60 29 Male 211 Eynsham Roadrunners 20:07:45
322 637 Adrian PINNOCK 00:37:03 00:36:42 VM60 30 Male 212 Eynsham Roadrunners 20:07:57
323 838 Katie KING 00:37:03 00:36:40 VL35 29 Female 111 Headington Roadrunners 34 20:07:57
324 745 Helen REED 00:37:07 00:36:53 SL 31 Female 112 Headington Roadrunners 34 20:08:01
325 71 Paul CREASEY 00:37:14 00:36:54 VM70 3 Male 213 Eynsham Roadrunners 20:08:08
326 364 Rick OWEN 00:37:15 00:36:51 VM40 66 Male 214 Alchester RC 20:08:09
327 953 Kate LOWE 00:37:35 00:37:12 VL45 33 Female 113 BSRC 20:08:29
328 363 Tayfun OSMAN 00:37:42 00:37:22 VM40 67 Male 215 Headington Roadrunners 26 20:08:36
329 538 Chris JONES 00:38:02 00:37:42 VM50 59 Male 216 Headington Roadrunners 26 20:08:56
330 50 Hannah WEST 00:38:03 00:37:45 VL55 16 Female 114 Witney Roadrunners 20:08:57
331 956 Emma MOORE 00:38:05 00:37:43 VL45 34 Female 115 Abingdon AC 35 20:08:59
332 859 Rebecca REID 00:38:38 00:38:29 VL35 30 Female 116 Headington Roadrunners 34 20:09:32
333 940 Diane HUBBERT 00:38:45 00:38:19 VL45 35 Female 117 Eynsham Roadrunners 37 20:09:39
334 30 Susan JAMES 00:39:02 00:38:36 VL55 17 Female 118 Abingdon AC 35 20:09:56
335 43 Gail MORRIS 00:39:12 00:38:44 VL55 18 Female 119 Eynsham Roadrunners 37 20:10:06
336 968 Maggy SHEPLEY 00:39:31 00:39:04 VL45 36 Female 120 Abingdon AC 35 20:10:25
337 721 Jen HORSMAN 00:39:46 00:39:25 SL 32 Female 121 20:10:40
338 911 Joanne BURKE 00:40:05 00:39:44 VL45 37 Female 122 Alchester RC 20:10:59
339 703 Victoria BARTHOLEMEW 00:40:06 00:39:44 SL 33 Female 123 Hook Norton Harriers 36 20:11:00
340 45 Sally ORMISTON 00:40:14 00:39:56 VL55 19 Female 124 20:11:08
341 730 Lisa MOULDER 00:40:15 00:39:54 SL 34 Female 125 Hook Norton Harriers 36 20:11:09
342 25 Cathy DAVIES 00:40:53 00:40:31 VL55 20 Female 126 Headington Roadrunners 20:11:47
343 63 Sandra-Lea SMITH 00:41:40 00:41:13 VL65 2 Female 127 Banbury Harriers 38 20:12:34
344 974 Karen THOMAS 00:41:58 00:41:36 VL45 38 Female 128 Cherwell Runners & Joggers 20:12:52
345 930 Maria HAMILTON 00:42:32 00:42:04 VL45 39 Female 129 Abingdon AC 20:13:26
346 60 Noel BLATCHFORD 00:43:18 00:42:59 VL65 3 Female 130 Abingdon AC 20:14:12
347 875 Emma WHITESIDE 00:43:32 00:43:04 VL35 31 Female 131 Alchester RC 20:14:26
348 620 Roger GASCOIGNE 00:43:34 00:43:07 VM60 31 Male 217 Eynsham Roadrunners 20:14:28
349 933 Sam HARRISON 00:43:34 00:43:05 VL45 40 Female 132 Eynsham Roadrunners 37 20:14:28
350 624 Paul GRIMSDALE 00:45:21 00:44:53 VM60 32 Male 218 Oxford City AC 18 20:16:15
351 78 Kit VILLIERS 00:48:00 00:47:34 VM70 4 Male 219 Headington Roadrunners 20:18:54